sensor_id;sensor_type;location;lat;lon;timestamp;pressure;altitude;pressure_sealevel;temperature;humidity
67109;BME280;54027;50.786;7.058;2023-12-14T00:00:34;100105.00;;;8.15;100.00
67109;BME280;54027;50.786;7.058;2023-12-14T00:02:59;100115.28;;;8.18;100.00
67109;BME280;54027;50.786;7.058;2023-12-14T00:05:24;100113.56;;;8.17;100.00
67109;BME280;54027;50.786;7.058;2023-12-14T00:07:50;100120.41;;;8.18;100.00
67109;BME280;54027;50.786;7.058;2023-12-14T00:10:15;100126.44;;;8.18;100.00
67109;BME280;54027;50.786;7.058;2023-12-14T00:12:43;100127.31;;;8.16;100.00
67109;BME280;54027;50.786;7.058;2023-12-14T00:15:09;100131.56;;;8.17;100.00
67109;BME280;54027;50.786;7.058;2023-12-14T00:17:34;100132.47;;;8.16;100.00
67109;BME280;54027;50.786;7.058;2023-12-14T00:20:00;100135.00;;;8.17;100.00
67109;BME280;54027;50.786;7.058;2023-12-14T00:22:25;100134.13;;;8.20;100.00
67109;BME280;54027;50.786;7.058;2023-12-14T00:24:51;100145.28;;;8.20;100.00
67109;BME280;54027;50.786;7.058;2023-12-14T00:27:16;100141.00;;;8.21;100.00
67109;BME280;54027;50.786;7.058;2023-12-14T00:29:41;100145.28;;;8.20;100.00
67109;BME280;54027;50.786;7.058;2023-12-14T00:32:07;100147.00;;;8.21;100.00
67109;BME280;54027;50.786;7.058;2023-12-14T00:34:32;100153.00;;;8.20;100.00
67109;BME280;54027;50.786;7.058;2023-12-14T00:36:58;100153.84;;;8.21;100.00
67109;BME280;54027;50.786;7.058;2023-12-14T00:39:23;100154.72;;;8.20;100.00
67109;BME280;54027;50.786;7.058;2023-12-14T00:41:49;100160.75;;;8.19;100.00
67109;BME280;54027;50.786;7.058;2023-12-14T00:44:14;100169.31;;;8.19;100.00
67109;BME280;54027;50.786;7.058;2023-12-14T00:46:39;100167.63;;;8.18;100.00
67109;BME280;54027;50.786;7.058;2023-12-14T00:49:07;100174.47;;;8.18;100.00
67109;BME280;54027;50.786;7.058;2023-12-14T00:51:32;100176.16;;;8.20;100.00
67109;BME280;54027;50.786;7.058;2023-12-14T00:53:57;100186.47;;;8.22;100.00
67109;BME280;54027;50.786;7.058;2023-12-14T00:56:23;100189.03;;;8.22;100.00
67109;BME280;54027;50.786;7.058;2023-12-14T00:58:48;100193.31;;;8.23;100.00
67109;BME280;54027;50.786;7.058;2023-12-14T01:01:13;100191.59;;;8.23;100.00
67109;BME280;54027;50.786;7.058;2023-12-14T01:03:39;100200.16;;;8.22;100.00
67109;BME280;54027;50.786;7.058;2023-12-14T01:06:04;100208.75;;;8.23;100.00
67109;BME280;54027;50.786;7.058;2023-12-14T01:08:30;100208.75;;;8.24;100.00
67109;BME280;54027;50.786;7.058;2023-12-14T01:10:55;100209.63;;;8.25;100.00
67109;BME280;54027;50.786;7.058;2023-12-14T01:13:21;100220.75;;;8.25;100.00
67109;BME280;54027;50.786;7.058;2023-12-14T01:15:46;100219.91;;;8.25;100.00
67109;BME280;54027;50.786;7.058;2023-12-14T01:18:11;100225.88;;;8.25;100.00
67109;BME280;54027;50.786;7.058;2023-12-14T01:20:38;100234.47;;;8.27;100.00
67109;BME280;54027;50.786;7.058;2023-12-14T01:23:03;100231.88;;;8.29;100.00
67109;BME280;54027;50.786;7.058;2023-12-14T01:25:29;100240.47;;;8.28;100.00
67109;BME280;54027;50.786;7.058;2023-12-14T01:27:54;100240.47;;;8.28;100.00
67109;BME280;54027;50.786;7.058;2023-12-14T01:30:20;100249.94;;;8.27;100.00
67109;BME280;54027;50.786;7.058;2023-12-14T01:32:45;100244.81;;;8.24;100.00
67109;BME280;54027;50.786;7.058;2023-12-14T01:35:10;100264.53;;;8.24;100.00
67109;BME280;54027;50.786;7.058;2023-12-14T01:37:36;100266.25;;;8.25;100.00
67109;BME280;54027;50.786;7.058;2023-12-14T01:40:01;100261.09;;;8.26;100.00
67109;BME280;54027;50.786;7.058;2023-12-14T01:42:27;100262.81;;;8.27;100.00
67109;BME280;54027;50.786;7.058;2023-12-14T01:44:52;100262.78;;;8.29;100.00
67109;BME280;54027;50.786;7.058;2023-12-14T01:47:18;100277.38;;;8.30;100.00
67109;BME280;54027;50.786;7.058;2023-12-14T01:49:43;100285.94;;;8.30;100.00
67109;BME280;54027;50.786;7.058;2023-12-14T01:52:09;100285.94;;;8.32;100.00
67109;BME280;54027;50.786;7.058;2023-12-14T01:54:34;100293.66;;;8.33;100.00
67109;BME280;54027;50.786;7.058;2023-12-14T01:56:59;100300.50;;;8.34;100.00
67109;BME280;54027;50.786;7.058;2023-12-14T01:59:25;100301.34;;;8.35;100.00
67109;BME280;54027;50.786;7.058;2023-12-14T02:01:55;100303.06;;;8.34;100.00
67109;BME280;54027;50.786;7.058;2023-12-14T02:04:23;100310.78;;;8.37;100.00
67109;BME280;54027;50.786;7.058;2023-12-14T02:06:49;100314.22;;;8.38;100.00
67109;BME280;54027;50.786;7.058;2023-12-14T02:09:15;100321.94;;;8.38;100.00
67109;BME280;54027;50.786;7.058;2023-12-14T02:11:40;100319.38;;;8.38;100.00
67109;BME280;54027;50.786;7.058;2023-12-14T02:14:06;100322.78;;;8.38;100.00
67109;BME280;54027;50.786;7.058;2023-12-14T02:16:34;100320.22;;;8.38;100.00
67109;BME280;54027;50.786;7.058;2023-12-14T02:18:59;100327.09;;;8.38;100.00
67109;BME280;54027;50.786;7.058;2023-12-14T02:21:25;100336.53;;;8.37;100.00
67109;BME280;54027;50.786;7.058;2023-12-14T02:23:50;100338.25;;;8.37;100.00
67109;BME280;54027;50.786;7.058;2023-12-14T02:26:15;100340.81;;;8.37;100.00
67109;BME280;54027;50.786;7.058;2023-12-14T02:28:41;100342.53;;;8.38;100.00
67109;BME280;54027;50.786;7.058;2023-12-14T02:31:06;100345.97;;;8.37;100.00
67109;BME280;54027;50.786;7.058;2023-12-14T02:33:32;100354.56;;;8.39;100.00
67109;BME280;54027;50.786;7.058;2023-12-14T02:35:58;100357.13;;;8.39;100.00
67109;BME280;54027;50.786;7.058;2023-12-14T02:38:23;100355.41;;;8.39;100.00
67109;BME280;54027;50.786;7.058;2023-12-14T02:40:49;100354.56;;;8.39;100.00
67109;BME280;54027;50.786;7.058;2023-12-14T02:43:18;100363.97;;;8.41;100.00
67109;BME280;54027;50.786;7.058;2023-12-14T02:45:44;100360.53;;;8.41;100.00
67109;BME280;54027;50.786;7.058;2023-12-14T02:48:09;100367.41;;;8.42;100.00
67109;BME280;54027;50.786;7.058;2023-12-14T02:50:35;100376.00;;;8.41;100.00
67109;BME280;54027;50.786;7.058;2023-12-14T02:53:00;100381.16;;;8.41;100.00
67109;BME280;54027;50.786;7.058;2023-12-14T02:55:26;100383.72;;;8.41;100.00
67109;BME280;54027;50.786;7.058;2023-12-14T02:57:51;100390.59;;;8.42;100.00
67109;BME280;54027;50.786;7.058;2023-12-14T03:00:17;100388.88;;;8.41;100.00
67109;BME280;54027;50.786;7.058;2023-12-14T03:02:42;100394.03;;;8.41;100.00
67109;BME280;54027;50.786;7.058;2023-12-14T03:05:08;100389.72;;;8.40;100.00
67109;BME280;54027;50.786;7.058;2023-12-14T03:07:33;100394.88;;;8.41;100.00
67109;BME280;54027;50.786;7.058;2023-12-14T03:09:59;100403.47;;;8.42;100.00
67109;BME280;54027;50.786;7.058;2023-12-14T03:12:24;100402.59;;;8.43;100.00
67109;BME280;54027;50.786;7.058;2023-12-14T03:14:50;100409.47;;;8.44;100.00
67109;BME280;54027;50.786;7.058;2023-12-14T03:17:15;100409.47;;;8.44;100.00
67109;BME280;54027;50.786;7.058;2023-12-14T03:19:42;100412.91;;;8.44;100.00
67109;BME280;54027;50.786;7.058;2023-12-14T03:22:08;100410.28;;;8.46;100.00
67109;BME280;54027;50.786;7.058;2023-12-14T03:24:34;100414.63;;;8.44;100.00
67109;BME280;54027;50.786;7.058;2023-12-14T03:26:59;100422.34;;;8.45;100.00
67109;BME280;54027;50.786;7.058;2023-12-14T03:29:26;100422.31;;;8.47;100.00
67109;BME280;54027;50.786;7.058;2023-12-14T03:31:52;100429.19;;;8.48;100.00
67109;BME280;54027;50.786;7.058;2023-12-14T03:34:17;100425.75;;;8.49;100.00
67109;BME280;54027;50.786;7.058;2023-12-14T03:36:42;100436.03;;;8.49;100.00
67109;BME280;54027;50.786;7.058;2023-12-14T03:39:08;100436.03;;;8.49;100.00
67109;BME280;54027;50.786;7.058;2023-12-14T03:41:33;100442.94;;;8.48;100.00
67109;BME280;54027;50.786;7.058;2023-12-14T03:43:59;100448.09;;;8.48;100.00
67109;BME280;54027;50.786;7.058;2023-12-14T03:46:24;100454.06;;;8.49;100.00
67109;BME280;54027;50.786;7.058;2023-12-14T03:48:50;100465.25;;;8.48;100.00
67109;BME280;54027;50.786;7.058;2023-12-14T03:51:19;100466.13;;;8.41;100.00
67109;BME280;54027;50.786;7.058;2023-12-14T03:53:45;100463.59;;;8.33;100.00
67109;BME280;54027;50.786;7.058;2023-12-14T03:56:11;100473.91;;;8.32;100.00
67109;BME280;54027;50.786;7.058;2023-12-14T03:58:36;100479.06;;;8.29;100.00
67109;BME280;54027;50.786;7.058;2023-12-14T04:01:01;100487.63;;;8.28;100.00
67109;BME280;54027;50.786;7.058;2023-12-14T04:03:27;100485.94;;;8.27;100.00
67109;BME280;54027;50.786;7.058;2023-12-14T04:05:52;100491.09;;;8.25;100.00
67109;BME280;54027;50.786;7.058;2023-12-14T04:08:18;100501.41;;;8.24;100.00
67109;BME280;54027;50.786;7.058;2023-12-14T04:10:43;100508.28;;;8.22;100.00
67109;BME280;54027;50.786;7.058;2023-12-14T04:13:09;100514.28;;;8.19;100.00
67109;BME280;54027;50.786;7.058;2023-12-14T04:15:34;100511.72;;;8.18;100.00
67109;BME280;54027;50.786;7.058;2023-12-14T04:18:00;100527.16;;;8.18;100.00
67109;BME280;54027;50.786;7.058;2023-12-14T04:20:25;100523.72;;;8.14;100.00
67109;BME280;54027;50.786;7.058;2023-12-14T04:22:50;100536.63;;;8.13;100.00
67109;BME280;54027;50.786;7.058;2023-12-14T04:25:16;100534.06;;;8.10;100.00
67109;BME280;54027;50.786;7.058;2023-12-14T04:27:41;100541.78;;;8.10;100.00
67109;BME280;54027;50.786;7.058;2023-12-14T04:30:07;100553.78;;;8.05;100.00
67109;BME280;54027;50.786;7.058;2023-12-14T04:32:36;100552.09;;;8.04;100.00
67109;BME280;54027;50.786;7.058;2023-12-14T04:35:02;100556.34;;;8.01;100.00
67109;BME280;54027;50.786;7.058;2023-12-14T04:37:28;100561.53;;;8.00;100.00
67109;BME280;54027;50.786;7.058;2023-12-14T04:39:54;100570.09;;;7.96;100.00
67109;BME280;54027;50.786;7.058;2023-12-14T04:42:19;100574.38;;;7.92;100.00
67109;BME280;54027;50.786;7.058;2023-12-14T04:44:44;100582.97;;;7.85;100.00
67109;BME280;54027;50.786;7.058;2023-12-14T04:47:10;100581.25;;;7.78;100.00
67109;BME280;54027;50.786;7.058;2023-12-14T04:49:35;100581.28;;;7.77;100.00
67109;BME280;54027;50.786;7.058;2023-12-14T04:52:04;100579.53;;;7.76;100.00
67109;BME280;54027;50.786;7.058;2023-12-14T04:54:29;100582.97;;;7.73;100.00
67109;BME280;54027;50.786;7.058;2023-12-14T04:56:58;100594.97;;;7.73;100.00
67109;BME280;54027;50.786;7.058;2023-12-14T04:59:23;100594.13;;;7.71;100.00
67109;BME280;54027;50.786;7.058;2023-12-14T05:01:49;100598.41;;;7.72;100.00
67109;BME280;54027;50.786;7.058;2023-12-14T05:04:14;100609.56;;;7.72;100.00
67109;BME280;54027;50.786;7.058;2023-12-14T05:06:41;100608.72;;;7.73;100.00
67109;BME280;54027;50.786;7.058;2023-12-14T05:09:06;100615.56;;;7.68;100.00
67109;BME280;54027;50.786;7.058;2023-12-14T05:11:32;100624.13;;;7.70;100.00
67109;BME280;54027;50.786;7.058;2023-12-14T05:13:58;100631.84;;;7.67;100.00
67109;BME280;54027;50.786;7.058;2023-12-14T05:16:23;100636.16;;;7.65;100.00
67109;BME280;54027;50.786;7.058;2023-12-14T05:18:55;100644.69;;;7.66;100.00
67109;BME280;54027;50.786;7.058;2023-12-14T05:21:22;100646.44;;;7.62;100.00
67109;BME280;54027;50.786;7.058;2023-12-14T05:23:47;100649.84;;;7.63;100.00
67109;BME280;54027;50.786;7.058;2023-12-14T05:26:13;100655.00;;;7.61;100.00
67109;BME280;54027;50.786;7.058;2023-12-14T05:28:38;100648.97;;;7.61;100.00
67109;BME280;54027;50.786;7.058;2023-12-14T05:31:04;100667.84;;;7.61;100.00
67109;BME280;54027;50.786;7.058;2023-12-14T05:33:29;100660.13;;;7.60;100.00
67109;BME280;54027;50.786;7.058;2023-12-14T05:35:56;100656.69;;;7.61;100.00
67109;BME280;54027;50.786;7.058;2023-12-14T05:38:22;100666.16;;;7.62;100.00
67109;BME280;54027;50.786;7.058;2023-12-14T05:40:47;100663.56;;;7.62;100.00
67109;BME280;54027;50.786;7.058;2023-12-14T05:43:12;100670.44;;;7.61;100.00
67109;BME280;54027;50.786;7.058;2023-12-14T05:45:38;100673.00;;;7.58;100.00
67109;BME280;54027;50.786;7.058;2023-12-14T05:48:03;100679.00;;;7.56;100.00
67109;BME280;54027;50.786;7.058;2023-12-14T05:50:32;100676.41;;;7.56;100.00
67109;BME280;54027;50.786;7.058;2023-12-14T05:52:57;100681.53;;;7.54;100.00
67109;BME280;54027;50.786;7.058;2023-12-14T05:55:23;100685.84;;;7.52;100.00
67109;BME280;54027;50.786;7.058;2023-12-14T05:57:49;100688.41;;;7.49;100.00
67109;BME280;54027;50.786;7.058;2023-12-14T06:00:14;100704.69;;;7.47;100.00
67109;BME280;54027;50.786;7.058;2023-12-14T06:02:41;100710.69;;;7.44;100.00
67109;BME280;54027;50.786;7.058;2023-12-14T06:05:07;100708.09;;;7.44;100.00
67109;BME280;54027;50.786;7.058;2023-12-14T06:07:33;100710.69;;;7.44;100.00
67109;BME280;54027;50.786;7.058;2023-12-14T06:09:58;100717.53;;;7.43;100.00
67109;BME280;54027;50.786;7.058;2023-12-14T06:12:24;100723.53;;;7.41;100.00
67109;BME280;54027;50.786;7.058;2023-12-14T06:14:49;100730.38;;;7.40;100.00
67109;BME280;54027;50.786;7.058;2023-12-14T06:17:15;100738.94;;;7.41;100.00
67109;BME280;54027;50.786;7.058;2023-12-14T06:19:41;100745.78;;;7.42;100.00
67109;BME280;54027;50.786;7.058;2023-12-14T06:22:06;100744.94;;;7.40;100.00
67109;BME280;54027;50.786;7.058;2023-12-14T06:24:32;100755.25;;;7.43;100.00
67109;BME280;54027;50.786;7.058;2023-12-14T06:26:57;100753.53;;;7.40;100.00
67109;BME280;54027;50.786;7.058;2023-12-14T06:29:22;100760.38;;;7.40;100.00
67109;BME280;54027;50.786;7.058;2023-12-14T06:31:48;100774.94;;;7.38;100.00
67109;BME280;54027;50.786;7.058;2023-12-14T06:34:14;100778.34;;;7.32;100.00
67109;BME280;54027;50.786;7.058;2023-12-14T06:36:44;100785.19;;;7.32;100.00
67109;BME280;54027;50.786;7.058;2023-12-14T06:39:09;100784.31;;;7.28;100.00
67109;BME280;54027;50.786;7.058;2023-12-14T06:41:36;100797.16;;;7.28;100.00
67109;BME280;54027;50.786;7.058;2023-12-14T06:44:01;100801.44;;;7.28;100.00
67109;BME280;54027;50.786;7.058;2023-12-14T06:46:27;100808.31;;;7.26;100.00
67109;BME280;54027;50.786;7.058;2023-12-14T06:48:53;100814.28;;;7.25;100.00
67109;BME280;54027;50.786;7.058;2023-12-14T06:51:22;100823.72;;;7.27;100.00
67109;BME280;54027;50.786;7.058;2023-12-14T06:53:47;100828.00;;;7.24;100.00
67109;BME280;54027;50.786;7.058;2023-12-14T06:56:14;100833.13;;;7.22;100.00
67109;BME280;54027;50.786;7.058;2023-12-14T06:58:41;100841.66;;;7.21;100.00
67109;BME280;54027;50.786;7.058;2023-12-14T07:01:08;100845.97;;;7.21;100.00
67109;BME280;54027;50.786;7.058;2023-12-14T07:03:39;100844.22;;;7.17;100.00
67109;BME280;54027;50.786;7.058;2023-12-14T07:06:05;100852.81;;;7.17;100.00
67109;BME280;54027;50.786;7.058;2023-12-14T07:08:30;100853.66;;;7.16;100.00
67109;BME280;54027;50.786;7.058;2023-12-14T07:10:56;100861.34;;;7.16;100.00
67109;BME280;54027;50.786;7.058;2023-12-14T07:13:21;100871.59;;;7.12;100.00
67109;BME280;54027;50.786;7.058;2023-12-14T07:15:47;100871.56;;;7.10;100.00
67109;BME280;54027;50.786;7.058;2023-12-14T07:18:12;100868.97;;;7.07;100.00
67109;BME280;54027;50.786;7.058;2023-12-14T07:20:38;100879.22;;;7.03;100.00
67109;BME280;54027;50.786;7.058;2023-12-14T07:23:03;100878.34;;;6.99;100.00
67109;BME280;54027;50.786;7.058;2023-12-14T07:25:29;100885.19;;;6.97;100.00
67109;BME280;54027;50.786;7.058;2023-12-14T07:27:54;100893.72;;;6.96;100.00
67109;BME280;54027;50.786;7.058;2023-12-14T07:30:19;100892.88;;;6.96;100.00
67109;BME280;54027;50.786;7.058;2023-12-14T07:32:45;100899.72;;;6.95;100.00
67109;BME280;54027;50.786;7.058;2023-12-14T07:35:10;100907.38;;;6.92;100.00
67109;BME280;54027;50.786;7.058;2023-12-14T07:37:36;100912.53;;;6.90;100.00
67109;BME280;54027;50.786;7.058;2023-12-14T07:40:02;100910.78;;;6.89;100.00
67109;BME280;54027;50.786;7.058;2023-12-14T07:42:28;100914.19;;;6.85;100.00
67109;BME280;54027;50.786;7.058;2023-12-14T07:44:53;100925.25;;;6.80;100.00
67109;BME280;54027;50.786;7.058;2023-12-14T07:47:19;100932.09;;;6.78;100.00
67109;BME280;54027;50.786;7.058;2023-12-14T07:49:45;100938.03;;;6.74;100.00
67109;BME280;54027;50.786;7.058;2023-12-14T07:52:11;100942.34;;;6.75;100.00
67109;BME280;54027;50.786;7.058;2023-12-14T07:54:38;100945.75;;;6.72;100.00
67109;BME280;54027;50.786;7.058;2023-12-14T07:57:04;100954.28;;;6.70;100.00
67109;BME280;54027;50.786;7.058;2023-12-14T07:59:29;100957.69;;;6.67;100.00
67109;BME280;54027;50.786;7.058;2023-12-14T08:01:55;100959.41;;;6.67;100.00
67109;BME280;54027;50.786;7.058;2023-12-14T08:04:20;100963.66;;;6.66;100.00
67109;BME280;54027;50.786;7.058;2023-12-14T08:06:46;100977.34;;;6.64;100.00
67109;BME280;54027;50.786;7.058;2023-12-14T08:09:11;100987.59;;;6.62;100.00
67109;BME280;54027;50.786;7.058;2023-12-14T08:11:37;100986.72;;;6.60;100.00
67109;BME280;54027;50.786;7.058;2023-12-14T08:14:02;100995.22;;;6.56;100.00
67109;BME280;54027;50.786;7.058;2023-12-14T08:16:28;101005.44;;;6.52;100.00
67109;BME280;54027;50.786;7.058;2023-12-14T08:18:53;101017.38;;;6.48;100.00
67109;BME280;54027;50.786;7.058;2023-12-14T08:21:19;101015.63;;;6.44;100.00
67109;BME280;54027;50.786;7.058;2023-12-14T08:23:44;101019.00;;;6.40;100.00
67109;BME280;54027;50.786;7.058;2023-12-14T08:26:10;101027.53;;;6.39;100.00
67109;BME280;54027;50.786;7.058;2023-12-14T08:28:40;101024.16;;;6.40;100.00
67109;BME280;54027;50.786;7.058;2023-12-14T08:31:06;101033.59;;;6.44;100.00
67109;BME280;54027;50.786;7.058;2023-12-14T08:33:31;101034.47;;;6.45;100.00
67109;BME280;54027;50.786;7.058;2023-12-14T08:35:57;101038.72;;;6.44;100.00
67109;BME280;54027;50.786;7.058;2023-12-14T08:38:23;101041.31;;;6.46;100.00
67109;BME280;54027;50.786;7.058;2023-12-14T08:40:49;101043.06;;;6.48;100.00
67109;BME280;54027;50.786;7.058;2023-12-14T08:43:14;101044.84;;;6.52;100.00
67109;BME280;54027;50.786;7.058;2023-12-14T08:45:39;101055.94;;;6.53;100.00
67109;BME280;54027;50.786;7.058;2023-12-14T08:48:05;101055.06;;;6.51;100.00
67109;BME280;54027;50.786;7.058;2023-12-14T08:50:31;101061.03;;;6.50;100.00
67109;BME280;54027;50.786;7.058;2023-12-14T08:52:56;101067.00;;;6.47;100.00
67109;BME280;54027;50.786;7.058;2023-12-14T08:55:25;101066.19;;;6.50;100.00
67109;BME280;54027;50.786;7.058;2023-12-14T08:57:51;101077.28;;;6.47;100.00
67109;BME280;54027;50.786;7.058;2023-12-14T09:00:17;101086.72;;;6.48;100.00
67109;BME280;54027;50.786;7.058;2023-12-14T09:02:44;101089.28;;;6.50;100.00
67109;BME280;54027;50.786;7.058;2023-12-14T09:05:13;101090.16;;;6.49;100.00
67109;BME280;54027;50.786;7.058;2023-12-14T09:07:39;101097.91;;;6.52;100.00
67109;BME280;54027;50.786;7.058;2023-12-14T09:10:05;101104.78;;;6.54;100.00
67109;BME280;54027;50.786;7.058;2023-12-14T09:12:32;101111.66;;;6.57;100.00
67109;BME280;54027;50.786;7.058;2023-12-14T09:14:58;101121.06;;;6.56;100.00
67109;BME280;54027;50.786;7.058;2023-12-14T09:17:24;101113.31;;;6.53;100.00
67109;BME280;54027;50.786;7.058;2023-12-14T09:19:49;101127.88;;;6.54;100.00
67109;BME280;54027;50.786;7.058;2023-12-14T09:22:15;101127.06;;;6.55;100.00
67109;BME280;54027;50.786;7.058;2023-12-14T09:24:40;101133.03;;;6.56;100.00
67109;BME280;54027;50.786;7.058;2023-12-14T09:27:06;101143.28;;;6.54;100.00
67109;BME280;54027;50.786;7.058;2023-12-14T09:29:31;101142.47;;;6.55;100.00
67109;BME280;54027;50.786;7.058;2023-12-14T09:31:57;101146.72;;;6.55;100.00
67109;BME280;54027;50.786;7.058;2023-12-14T09:34:22;101150.13;;;6.54;100.00
67109;BME280;54027;50.786;7.058;2023-12-14T09:36:47;101161.22;;;6.51;100.00
67109;BME280;54027;50.786;7.058;2023-12-14T09:39:13;101161.19;;;6.48;100.00
67109;BME280;54027;50.786;7.058;2023-12-14T09:41:40;101167.97;;;6.43;100.00
67109;BME280;54027;50.786;7.058;2023-12-14T09:44:06;101179.06;;;6.41;100.00
67109;BME280;54027;50.786;7.058;2023-12-14T09:46:36;101174.72;;;6.38;100.00
67109;BME280;54027;50.786;7.058;2023-12-14T09:49:03;101178.19;;;6.40;100.00
67109;BME280;54027;50.786;7.058;2023-12-14T09:51:30;101174.75;;;6.41;100.00
67109;BME280;54027;50.786;7.058;2023-12-14T09:53:56;101180.75;;;6.40;100.00
67109;BME280;54027;50.786;7.058;2023-12-14T09:56:27;101178.97;;;6.36;100.00
67109;BME280;54027;50.786;7.058;2023-12-14T09:58:53;101190.06;;;6.33;100.00
67109;BME280;54027;50.786;7.058;2023-12-14T10:01:27;101188.31;;;6.31;100.00
67109;BME280;54027;50.786;7.058;2023-12-14T10:04:13;101189.97;;;6.29;100.00
67109;BME280;54027;50.786;7.058;2023-12-14T10:06:41;101196.84;;;6.30;100.00
67109;BME280;54027;50.786;7.058;2023-12-14T10:09:08;101198.53;;;6.28;100.00
67109;BME280;54027;50.786;7.058;2023-12-14T10:11:38;101201.09;;;6.28;100.00
67109;BME280;54027;50.786;7.058;2023-12-14T10:14:21;101209.72;;;6.31;100.00
67109;BME280;54027;50.786;7.058;2023-12-14T10:16:48;101209.72;;;6.33;100.00
67109;BME280;54027;50.786;7.058;2023-12-14T10:19:17;101215.59;;;6.26;100.00
67109;BME280;54027;50.786;7.058;2023-12-14T10:21:42;101212.97;;;6.23;100.00
67109;BME280;54027;50.786;7.058;2023-12-14T10:24:08;101217.31;;;6.25;100.00
67109;BME280;54027;50.786;7.058;2023-12-14T10:26:34;101220.78;;;6.27;100.00
67109;BME280;54027;50.786;7.058;2023-12-14T10:28:59;101230.22;;;6.30;100.00
67109;BME280;54027;50.786;7.058;2023-12-14T10:31:26;101233.66;;;6.32;100.00
67109;BME280;54027;50.786;7.058;2023-12-14T10:33:52;101234.56;;;6.34;100.00
67109;BME280;54027;50.786;7.058;2023-12-14T10:36:22;101238.00;;;6.34;100.00
67109;BME280;54027;50.786;7.058;2023-12-14T10:38:53;101236.34;;;6.38;100.00
67109;BME280;54027;50.786;7.058;2023-12-14T10:41:20;101244.09;;;6.41;100.00
67109;BME280;54027;50.786;7.058;2023-12-14T10:43:47;101252.75;;;6.48;100.00
67109;BME280;54027;50.786;7.058;2023-12-14T10:46:14;101251.88;;;6.46;100.00
67109;BME280;54027;50.786;7.058;2023-12-14T10:48:40;101261.28;;;6.45;100.00
67109;BME280;54027;50.786;7.058;2023-12-14T10:51:11;101262.97;;;6.45;100.00
67109;BME280;54027;50.786;7.058;2023-12-14T10:53:37;101274.94;;;6.44;100.00
67109;BME280;54027;50.786;7.058;2023-12-14T10:56:05;101271.44;;;6.38;100.00
67109;BME280;54027;50.786;7.058;2023-12-14T10:58:45;101279.97;;;6.37;100.00
67109;BME280;54027;50.786;7.058;2023-12-14T11:01:22;101274.84;;;6.37;100.00
67109;BME280;54027;50.786;7.058;2023-12-14T11:03:55;101289.38;;;6.36;100.00
67109;BME280;54027;50.786;7.058;2023-12-14T11:08:53;101282.44;;;6.30;100.00
67109;BME280;54027;50.786;7.058;2023-12-14T11:11:20;101293.41;;;6.22;100.00
67109;BME280;54027;50.786;7.058;2023-12-14T11:13:51;101298.50;;;6.19;100.00
67109;BME280;54027;50.786;7.058;2023-12-14T11:16:20;101294.19;;;6.18;100.00
67109;BME280;54027;50.786;7.058;2023-12-14T11:18:47;101295.88;;;6.17;100.00
67109;BME280;54027;50.786;7.058;2023-12-14T11:21:18;101285.66;;;6.20;100.00
67109;BME280;54027;50.786;7.058;2023-12-14T11:23:50;101297.69;;;6.23;100.00
67109;BME280;54027;50.786;7.058;2023-12-14T11:26:20;101297.72;;;6.24;100.00
67109;BME280;54027;50.786;7.058;2023-12-14T11:28:48;101308.88;;;6.26;100.00
67109;BME280;54027;50.786;7.058;2023-12-14T11:31:13;101314.06;;;6.28;100.00
67109;BME280;54027;50.786;7.058;2023-12-14T11:33:39;101317.44;;;6.27;100.00
67109;BME280;54027;50.786;7.058;2023-12-14T11:36:05;101318.38;;;6.32;100.00
67109;BME280;54027;50.786;7.058;2023-12-14T11:38:31;101320.13;;;6.31;100.00
67109;BME280;54027;50.786;7.058;2023-12-14T11:41:00;101315.03;;;6.36;100.00
67109;BME280;54027;50.786;7.058;2023-12-14T11:43:26;101319.25;;;6.31;100.00
67109;BME280;54027;50.786;7.058;2023-12-14T11:45:52;101329.53;;;6.32;100.00
67109;BME280;54027;50.786;7.058;2023-12-14T11:48:18;101325.31;;;6.34;100.00
67109;BME280;54027;50.786;7.058;2023-12-14T11:50:45;101333.06;;;6.39;100.00
67109;BME280;54027;50.786;7.058;2023-12-14T11:53:12;101335.59;;;6.36;100.00
67109;BME280;54027;50.786;7.058;2023-12-14T11:55:38;101334.69;;;6.34;100.00
67109;BME280;54027;50.786;7.058;2023-12-14T11:58:05;101335.41;;;6.27;100.00
67109;BME280;54027;50.786;7.058;2023-12-14T12:00:31;101345.63;;;6.24;100.00
67109;BME280;54027;50.786;7.058;2023-12-14T12:03:12;101342.13;;;6.20;100.00
67109;BME280;54027;50.786;7.058;2023-12-14T12:05:48;101350.75;;;6.24;100.00
67109;BME280;54027;50.786;7.058;2023-12-14T12:08:16;101355.81;;;6.19;100.00
67109;BME280;54027;50.786;7.058;2023-12-14T12:10:44;101351.56;;;6.20;100.00
67109;BME280;54027;50.786;7.058;2023-12-14T12:13:16;101353.25;;;6.19;100.00
67109;BME280;54027;50.786;7.058;2023-12-14T12:15:41;101348.13;;;6.19;100.00
67109;BME280;54027;50.786;7.058;2023-12-14T12:18:12;101356.66;;;6.18;100.00
67109;BME280;54027;50.786;7.058;2023-12-14T12:20:38;101354.06;;;6.17;100.00
67109;BME280;54027;50.786;7.058;2023-12-14T12:23:04;101354.09;;;6.18;100.00
67109;BME280;54027;50.786;7.058;2023-12-14T12:25:32;101354.91;;;6.17;100.00
67109;BME280;54027;50.786;7.058;2023-12-14T12:27:59;101355.81;;;6.19;100.00
67109;BME280;54027;50.786;7.058;2023-12-14T12:30:25;101356.69;;;6.20;100.00
67109;BME280;54027;50.786;7.058;2023-12-14T12:32:51;101360.16;;;6.23;100.00
67109;BME280;54027;50.786;7.058;2023-12-14T12:35:24;101362.66;;;6.19;100.00
67109;BME280;54027;50.786;7.058;2023-12-14T12:37:51;101354.13;;;6.20;100.00
67109;BME280;54027;50.786;7.058;2023-12-14T12:40:23;101361.84;;;6.20;100.00
67109;BME280;54027;50.786;7.058;2023-12-14T12:42:51;101366.16;;;6.22;100.00
67109;BME280;54027;50.786;7.058;2023-12-14T12:45:17;101369.53;;;6.21;100.00
67109;BME280;54027;50.786;7.058;2023-12-14T12:47:43;101372.09;;;6.21;100.00